createdAt,value
2018-08-16T00:00:58.145Z,11.30
2018-08-16T00:02:04.709Z,12.70
2018-08-16T00:03:09.173Z,12.40
2018-08-16T00:04:14.711Z,12.50
2018-08-16T00:05:21.272Z,11.90
2018-08-16T00:06:25.743Z,12.30
2018-08-16T00:07:32.283Z,13.70
2018-08-16T00:08:36.792Z,12.30
2018-08-16T00:09:42.303Z,12.40
2018-08-16T00:10:48.822Z,11.50
2018-08-16T00:11:53.330Z,11.70
2018-08-16T00:12:59.862Z,11.20
2018-08-16T00:14:04.361Z,12.20
2018-08-16T00:15:09.874Z,12.10
2018-08-16T00:16:16.399Z,11.30
2018-08-16T00:17:20.921Z,12.10
2018-08-16T00:18:27.468Z,11.70
2018-08-16T00:19:31.947Z,11.60
2018-08-16T00:20:37.492Z,11.50
2018-08-16T00:21:43.986Z,11.70
2018-08-16T00:22:48.489Z,12.70
2018-08-16T00:23:55.034Z,13.10
2018-08-16T00:24:59.542Z,12.20
2018-08-16T00:26:05.087Z,12.20
2018-08-16T00:27:11.554Z,12.50
2018-08-16T00:28:16.087Z,13.00
2018-08-16T00:29:22.586Z,11.80
2018-08-16T00:30:27.122Z,12.70
2018-08-16T00:31:32.634Z,12.60
2018-08-16T00:32:39.152Z,12.70
2018-08-16T00:33:43.640Z,13.00
2018-08-16T00:34:50.169Z,13.70
2018-08-16T00:35:54.717Z,13.50
2018-08-16T00:37:00.206Z,12.80
2018-08-16T00:38:06.730Z,13.00
2018-08-16T00:39:11.247Z,12.50
2018-08-16T00:40:17.755Z,13.40
2018-08-16T00:41:22.263Z,13.60
2018-08-16T00:42:27.794Z,13.50
2018-08-16T00:43:34.319Z,13.30
2018-08-16T00:44:38.814Z,14.00
2018-08-16T00:45:45.347Z,11.30
2018-08-16T00:46:49.879Z,11.90
2018-08-16T00:47:55.359Z,12.30
2018-08-16T00:49:01.899Z,13.10
2018-08-16T00:50:06.410Z,11.90
2018-08-16T00:51:12.959Z,11.70
2018-08-16T00:52:17.432Z,11.90
2018-08-16T00:53:22.942Z,11.90
2018-08-16T00:54:29.461Z,12.30
2018-08-16T00:55:33.962Z,13.40
2018-08-16T00:56:40.527Z,13.00
2018-08-16T00:57:45.048Z,12.80
2018-08-16T00:58:50.535Z,13.00
2018-08-16T00:59:57.037Z,12.90
2018-08-16T01:01:01.554Z,12.10
2018-08-16T01:02:08.103Z,12.40
2018-08-16T01:03:12.575Z,11.90
2018-08-16T01:04:18.115Z,11.70
2018-08-16T01:05:24.648Z,12.20
2018-08-16T01:06:29.160Z,11.60
2018-08-16T01:07:35.674Z,11.70
2018-08-16T01:08:40.194Z,12.00
2018-08-16T01:09:45.689Z,12.20
2018-08-16T01:10:52.218Z,12.70
2018-08-16T01:11:56.708Z,12.50
2018-08-16T01:13:03.232Z,13.60
2018-08-16T01:14:07.755Z,13.70
2018-08-16T01:15:13.293Z,12.10
2018-08-16T01:16:19.787Z,12.80
2018-08-16T01:17:24.286Z,11.70
2018-08-16T01:18:30.839Z,11.30
2018-08-16T01:19:35.351Z,11.90
2018-08-16T01:20:40.846Z,11.80
2018-08-16T01:21:47.383Z,12.40
2018-08-16T01:22:51.886Z,12.00
2018-08-16T01:23:58.395Z,12.00
2018-08-16T01:25:02.929Z,13.00
2018-08-16T01:26:08.417Z,11.70
2018-08-16T01:27:14.943Z,12.10
2018-08-16T01:28:19.457Z,12.60
2018-08-16T01:29:25.998Z,13.90
2018-08-16T01:30:30.499Z,12.30
2018-08-16T01:31:35.995Z,12.00
2018-08-16T01:32:42.539Z,12.00
2018-08-16T01:33:47.013Z,12.90
2018-08-16T01:34:53.559Z,11.90
2018-08-16T01:35:58.056Z,13.10
2018-08-16T01:37:03.592Z,12.90
2018-08-16T01:38:10.107Z,12.10
2018-08-16T01:39:14.606Z,12.50
2018-08-16T01:40:21.131Z,13.80
2018-08-16T01:41:25.652Z,12.70
2018-08-16T01:42:31.163Z,12.10
2018-08-16T01:43:37.673Z,12.30
2018-08-16T01:44:42.211Z,12.30
2018-08-16T01:45:48.713Z,12.20
2018-08-16T01:46:53.231Z,12.20
2018-08-16T01:47:58.735Z,12.10
2018-08-16T01:49:05.258Z,11.70
2018-08-16T01:50:09.762Z,11.90
2018-08-16T01:51:16.293Z,11.70
2018-08-16T01:52:20.776Z,12.70
2018-08-16T01:53:26.335Z,12.50
2018-08-16T01:54:32.831Z,12.90
2018-08-16T01:55:37.334Z,12.40
2018-08-16T01:56:43.891Z,11.90
2018-08-16T01:57:48.368Z,12.00
2018-08-16T01:58:53.874Z,12.70
2018-08-16T02:00:00.405Z,11.80
2018-08-16T02:01:04.915Z,11.70
2018-08-16T02:02:11.466Z,12.30
2018-08-16T02:03:15.955Z,12.90
2018-08-16T02:04:21.501Z,12.50
2018-08-16T02:05:27.996Z,12.50
2018-08-16T02:06:32.519Z,12.30
2018-08-16T02:07:39.027Z,12.00
2018-08-16T02:08:43.533Z,12.40
2018-08-16T02:09:49.057Z,12.00
2018-08-16T02:10:55.596Z,12.30
2018-08-16T02:12:00.096Z,12.50
2018-08-16T02:13:06.616Z,11.80
2018-08-16T02:14:11.123Z,12.10
2018-08-16T02:15:16.650Z,11.50
2018-08-16T02:16:23.145Z,11.90
2018-08-16T02:17:27.662Z,12.50
2018-08-16T02:18:34.186Z,13.30
2018-08-16T02:19:38.675Z,13.00
2018-08-16T02:20:44.202Z,14.00
2018-08-16T02:21:50.726Z,13.30
2018-08-16T02:22:55.238Z,13.10
2018-08-16T02:24:01.763Z,12.10
2018-08-16T02:25:06.275Z,11.60
2018-08-16T02:26:11.790Z,11.00
2018-08-16T02:27:18.309Z,11.20
2018-08-16T02:28:22.807Z,10.40
2018-08-16T02:29:29.326Z,10.80
2018-08-16T02:30:33.865Z,10.70
2018-08-16T02:31:39.337Z,11.80
2018-08-16T02:32:45.905Z,10.80
2018-08-16T02:33:50.396Z,11.10
2018-08-16T02:34:56.925Z,10.90
2018-08-16T02:36:01.428Z,11.20
2018-08-16T02:37:06.937Z,11.80
2018-08-16T02:38:13.508Z,11.60
2018-08-16T02:39:17.972Z,12.70
2018-08-16T02:40:24.476Z,13.50
2018-08-16T02:41:29.027Z,14.30
2018-08-16T02:42:34.506Z,13.60
2018-08-16T02:43:41.026Z,14.30
2018-08-16T02:44:45.547Z,14.90
2018-08-16T02:45:52.065Z,14.50
2018-08-16T02:46:56.586Z,14.20
2018-08-16T02:48:02.080Z,13.40
2018-08-16T02:49:08.614Z,14.20
2018-08-16T02:50:13.121Z,13.80
2018-08-16T02:51:19.658Z,13.60
2018-08-16T02:52:24.156Z,12.60
2018-08-16T02:53:29.668Z,13.80
2018-08-16T02:54:36.198Z,13.50
2018-08-16T02:55:40.691Z,12.30
2018-08-16T02:56:47.215Z,12.40
2018-08-16T02:57:51.719Z,11.60
2018-08-16T02:58:57.231Z,11.90
2018-08-16T03:00:03.781Z,12.70
2018-08-16T03:01:08.264Z,12.70
2018-08-16T03:02:14.797Z,13.20
2018-08-16T03:03:19.312Z,12.80
2018-08-16T03:04:24.838Z,12.10
2018-08-16T03:05:31.351Z,11.20
2018-08-16T03:06:35.846Z,11.70
2018-08-16T03:07:42.365Z,11.70
2018-08-16T03:08:46.885Z,11.40
2018-08-16T03:09:52.400Z,12.20
2018-08-16T03:10:58.930Z,12.70
2018-08-16T03:12:03.428Z,12.10
2018-08-16T03:13:09.955Z,12.10
2018-08-16T03:14:14.471Z,12.30
2018-08-16T03:15:19.960Z,12.10
2018-08-16T03:16:26.487Z,12.30
2018-08-16T03:17:31.005Z,12.10
2018-08-16T03:18:37.546Z,11.70
2018-08-16T03:19:42.048Z,11.60
2018-08-16T03:20:47.563Z,12.60
2018-08-16T03:21:54.079Z,13.40
2018-08-16T03:22:58.580Z,12.20
2018-08-16T03:24:05.115Z,12.40
2018-08-16T03:25:09.618Z,13.00
2018-08-16T03:26:15.128Z,13.00
2018-08-16T03:27:21.645Z,13.70
2018-08-16T03:28:26.145Z,13.90
2018-08-16T03:29:32.674Z,14.40
2018-08-16T03:30:37.202Z,14.60
2018-08-16T03:31:42.711Z,13.90
2018-08-16T03:32:49.229Z,14.30
2018-08-16T03:33:53.748Z,15.90
2018-08-16T03:35:00.258Z,14.20
2018-08-16T03:36:04.773Z,15.00
2018-08-16T03:37:10.362Z,15.40
2018-08-16T03:38:16.833Z,15.80
2018-08-16T03:39:21.338Z,14.80
2018-08-16T03:40:27.874Z,14.80
2018-08-16T03:41:32.347Z,15.00
2018-08-16T03:42:37.868Z,14.90
2018-08-16T03:43:44.471Z,14.70
2018-08-16T03:44:48.888Z,15.50
2018-08-16T03:45:55.417Z,13.60
2018-08-16T03:46:59.910Z,13.40
2018-08-16T03:48:05.508Z,12.80
2018-08-16T03:49:11.979Z,13.90
2018-08-16T03:50:16.511Z,12.70
2018-08-16T03:51:23.003Z,13.40
2018-08-16T03:52:27.527Z,13.00
2018-08-16T03:53:33.049Z,12.20
2018-08-16T03:54:39.612Z,11.40
2018-08-16T03:55:44.055Z,11.40
2018-08-16T03:56:50.562Z,11.70
2018-08-16T03:57:55.096Z,11.60
2018-08-16T03:59:00.591Z,11.70
2018-08-16T04:00:07.129Z,38.50
2018-08-16T04:01:11.616Z,13.30
2018-08-16T04:02:18.167Z,15.20
2018-08-16T04:03:22.655Z,14.00
2018-08-16T04:04:28.171Z,13.40
2018-08-16T04:05:34.675Z,13.20
2018-08-16T04:06:39.195Z,11.90
2018-08-16T04:07:45.723Z,11.40
2018-08-16T04:08:50.230Z,12.00
2018-08-16T04:09:55.743Z,12.20
2018-08-16T04:11:02.251Z,11.80
2018-08-16T04:12:06.782Z,11.30
2018-08-16T04:13:13.280Z,11.80
2018-08-16T04:14:17.809Z,11.80
2018-08-16T04:15:23.307Z,11.50
2018-08-16T04:16:29.836Z,11.90
2018-08-16T04:17:34.329Z,11.70
2018-08-16T04:18:40.865Z,12.20
2018-08-16T04:19:45.381Z,13.80
2018-08-16T04:20:50.902Z,12.00
2018-08-16T04:21:57.404Z,12.50
2018-08-16T04:23:01.925Z,11.60
2018-08-16T04:24:08.436Z,11.60
2018-08-16T04:25:12.939Z,12.20
2018-08-16T04:26:18.488Z,12.90
2018-08-16T04:27:24.978Z,12.70
2018-08-16T04:28:29.490Z,12.50
2018-08-16T04:29:36.029Z,13.00
2018-08-16T04:30:40.521Z,11.50
2018-08-16T04:31:46.042Z,11.60
2018-08-16T04:32:52.557Z,11.90
2018-08-16T04:33:57.066Z,12.40
2018-08-16T04:35:03.667Z,12.90
2018-08-16T04:36:08.113Z,12.90
2018-08-16T04:37:13.602Z,12.60
2018-08-16T04:38:20.138Z,12.10
2018-08-16T04:39:24.630Z,13.00
2018-08-16T04:40:31.177Z,13.40
2018-08-16T04:41:35.761Z,13.10
2018-08-16T04:42:41.240Z,14.10
2018-08-16T04:43:47.763Z,14.30
2018-08-16T04:44:52.222Z,14.30
2018-08-16T04:45:58.737Z,13.90
2018-08-16T04:47:03.232Z,14.00
2018-08-16T04:48:08.763Z,13.70
2018-08-16T04:49:15.291Z,13.80
2018-08-16T04:50:19.838Z,14.90
2018-08-16T04:51:26.306Z,14.80
2018-08-16T04:52:30.847Z,13.80
2018-08-16T04:53:36.344Z,14.80
2018-08-16T04:54:42.868Z,14.40
2018-08-16T04:55:47.429Z,14.80
2018-08-16T04:56:53.948Z,15.80
2018-08-16T04:57:58.428Z,14.00
2018-08-16T04:59:03.904Z,14.70
2018-08-16T05:00:10.452Z,13.10
2018-08-16T05:01:14.926Z,13.20
2018-08-16T05:02:21.478Z,14.50
2018-08-16T05:03:25.979Z,13.70
2018-08-16T05:04:31.491Z,13.20
2018-08-16T05:05:38.031Z,14.10
2018-08-16T05:06:42.510Z,13.90
2018-08-16T05:07:49.036Z,15.20
2018-08-16T05:08:53.553Z,15.20
2018-08-16T05:09:59.062Z,14.50
2018-08-16T05:11:05.605Z,15.60
2018-08-16T05:12:10.089Z,16.70
2018-08-16T05:13:16.647Z,16.70
2018-08-16T05:14:21.119Z,16.20
2018-08-16T05:15:26.628Z,16.40
2018-08-16T05:16:33.160Z,16.70
2018-08-16T05:17:37.670Z,15.30
2018-08-16T05:18:44.176Z,15.90
2018-08-16T05:19:48.723Z,16.80
2018-08-16T05:20:54.205Z,15.90
2018-08-16T05:22:00.727Z,16.90
2018-08-16T05:23:05.244Z,15.70
2018-08-16T05:24:11.745Z,16.60
2018-08-16T05:25:16.268Z,15.40
2018-08-16T05:26:21.788Z,16.10
2018-08-16T05:27:28.322Z,15.40
2018-08-16T05:28:32.820Z,15.80
2018-08-16T05:29:39.346Z,16.00
2018-08-16T05:30:43.836Z,16.30
2018-08-16T05:31:49.353Z,16.00
2018-08-16T05:32:55.872Z,16.20
2018-08-16T05:34:00.377Z,17.20
2018-08-16T05:35:06.925Z,18.60
2018-08-16T05:36:11.473Z,19.80
2018-08-16T05:37:16.943Z,17.20
2018-08-16T05:38:23.518Z,17.10
2018-08-16T05:39:27.957Z,16.30
2018-08-16T05:40:34.497Z,16.60
2018-08-16T05:41:39.022Z,16.90
2018-08-16T05:42:44.522Z,17.60
2018-08-16T05:43:51.027Z,17.40
2018-08-16T05:44:55.544Z,17.70
2018-08-16T05:46:02.063Z,17.00
2018-08-16T05:47:06.587Z,18.60
2018-08-16T05:48:12.083Z,18.10
2018-08-16T05:49:18.632Z,18.00
2018-08-16T05:50:23.137Z,18.70
2018-08-16T05:51:29.677Z,17.70
2018-08-16T05:52:34.151Z,18.50
2018-08-16T05:53:39.665Z,19.80
2018-08-16T05:54:46.210Z,18.50
2018-08-16T05:55:50.689Z,18.70
2018-08-16T05:56:57.210Z,18.80
2018-08-16T05:58:01.724Z,19.20
2018-08-16T05:59:07.254Z,18.90
2018-08-16T06:00:13.769Z,17.50
2018-08-16T06:01:18.281Z,17.80
2018-08-16T06:02:24.796Z,17.40
2018-08-16T06:03:29.312Z,17.60
2018-08-16T06:04:34.824Z,18.00
2018-08-16T06:05:41.354Z,18.70
2018-08-16T06:06:45.859Z,18.50
2018-08-16T06:07:52.388Z,18.40
2018-08-16T06:08:56.893Z,17.60
2018-08-16T06:10:02.404Z,17.40
2018-08-16T06:11:08.949Z,17.00
2018-08-16T06:12:13.446Z,17.40
2018-08-16T06:13:19.945Z,17.30
2018-08-16T06:14:24.469Z,17.00
2018-08-16T06:15:30.057Z,17.80
2018-08-16T06:16:36.510Z,17.40
2018-08-16T06:17:41.009Z,17.60
2018-08-16T06:18:47.536Z,16.90
2018-08-16T06:19:52.054Z,16.90
2018-08-16T06:20:57.545Z,17.10
2018-08-16T06:22:04.066Z,17.50
2018-08-16T06:23:08.596Z,17.70
2018-08-16T06:24:15.125Z,18.10
2018-08-16T06:25:19.614Z,17.20
2018-08-16T06:26:25.152Z,17.80
2018-08-16T06:27:31.673Z,20.40
2018-08-16T06:28:36.164Z,16.90
2018-08-16T06:29:42.701Z,18.40
2018-08-16T06:30:47.194Z,17.80
2018-08-16T06:31:52.755Z,19.10
2018-08-16T06:32:59.268Z,19.40
2018-08-16T06:34:03.764Z,16.90
2018-08-16T06:35:12.198Z,17.60
2018-08-16T06:36:14.779Z,18.90
2018-08-16T06:37:20.290Z,18.50
2018-08-16T06:38:26.823Z,18.60
2018-08-16T06:39:31.379Z,18.00
2018-08-16T06:40:37.872Z,18.20
2018-08-16T06:41:42.361Z,17.20
2018-08-16T06:42:47.898Z,18.00
2018-08-16T06:43:54.413Z,17.80
2018-08-16T06:44:58.927Z,17.30
2018-08-16T06:46:05.488Z,18.30
2018-08-16T06:47:10.114Z,18.10
2018-08-16T06:48:15.588Z,17.50
2018-08-16T06:49:22.127Z,17.60
2018-08-16T06:50:26.646Z,17.00
2018-08-16T06:51:33.257Z,15.60
2018-08-16T06:52:37.721Z,16.80
2018-08-16T06:53:43.189Z,16.40
2018-08-16T06:54:49.790Z,19.80
2018-08-16T06:55:54.248Z,19.20
2018-08-16T06:57:00.702Z,16.10
2018-08-16T06:58:05.240Z,17.40
2018-08-16T06:59:11.072Z,15.80
2018-08-16T07:00:17.172Z,17.70
2018-08-16T07:01:21.666Z,18.60
2018-08-16T07:02:28.360Z,16.40
2018-08-16T07:03:32.865Z,16.60
2018-08-16T07:04:38.330Z,16.60
2018-08-16T07:05:44.861Z,17.50
2018-08-16T07:06:49.425Z,15.70
2018-08-16T07:07:55.967Z,16.60
2018-08-16T07:09:00.428Z,16.80
2018-08-16T07:10:05.793Z,15.80
2018-08-16T07:11:12.289Z,15.30
2018-08-16T07:12:16.966Z,15.70
2018-08-16T07:13:23.345Z,14.90
2018-08-16T07:14:27.848Z,15.30
2018-08-16T07:15:33.372Z,14.70
2018-08-16T07:16:39.912Z,14.20
2018-08-16T07:17:44.415Z,14.70
2018-08-16T07:18:51.029Z,14.70
2018-08-16T07:19:55.438Z,17.20
2018-08-16T07:21:00.949Z,13.40
2018-08-16T07:22:07.451Z,16.00
2018-08-16T07:23:11.974Z,14.50
2018-08-16T07:24:18.508Z,13.70
2018-08-16T07:25:23.042Z,13.50
2018-08-16T07:26:28.535Z,12.70
2018-08-16T07:27:35.067Z,15.10
2018-08-16T07:28:39.547Z,13.90
2018-08-16T07:29:46.088Z,12.40
2018-08-16T07:30:50.608Z,13.50
2018-08-16T07:31:56.105Z,13.70
2018-08-16T07:33:02.639Z,14.60
2018-08-16T07:34:07.160Z,15.60
2018-08-16T07:35:13.702Z,15.90
2018-08-16T07:36:18.204Z,12.50
2018-08-16T07:37:23.729Z,11.00
2018-08-16T07:38:30.222Z,12.00
2018-08-16T07:39:34.776Z,11.80
2018-08-16T07:40:41.256Z,10.00
2018-08-16T07:41:45.774Z,11.50
2018-08-16T07:42:51.292Z,10.90
2018-08-16T07:43:57.819Z,10.90
2018-08-16T07:45:02.311Z,11.20
2018-08-16T07:46:09.005Z,10.20
2018-08-16T07:47:13.361Z,10.00
2018-08-16T07:48:18.891Z,10.50
2018-08-16T07:49:25.425Z,10.10
2018-08-16T07:50:29.918Z,10.10
2018-08-16T07:51:36.580Z,12.10
2018-08-16T07:52:40.983Z,11.30
2018-08-16T07:53:46.519Z,12.60
2018-08-16T07:54:53.024Z,11.50
2018-08-16T07:55:57.641Z,11.00
2018-08-16T07:57:04.051Z,10.20
2018-08-16T07:58:08.520Z,10.40
2018-08-16T07:59:14.058Z,10.60
2018-08-16T08:00:20.584Z,10.30
2018-08-16T08:01:25.075Z,11.70
2018-08-16T08:02:31.627Z,10.70
2018-08-16T08:03:36.118Z,10.50
2018-08-16T08:04:41.644Z,12.90
2018-08-16T08:05:48.143Z,10.70
2018-08-16T08:06:52.695Z,14.20
2018-08-16T08:07:59.204Z,12.70
2018-08-16T08:09:03.842Z,10.70
2018-08-16T08:10:09.251Z,10.70
2018-08-16T08:11:15.753Z,10.40
2018-08-16T08:12:20.275Z,11.30
2018-08-16T08:13:26.777Z,11.70
2018-08-16T08:14:31.326Z,11.10
2018-08-16T08:15:36.942Z,11.90
2018-08-16T08:16:43.338Z,11.50
2018-08-16T08:17:47.867Z,10.60
2018-08-16T08:18:54.375Z,10.10
2018-08-16T08:19:58.878Z,9.70
2018-08-16T08:21:04.424Z,9.80
2018-08-16T08:22:10.989Z,10.00
2018-08-16T08:23:15.431Z,8.90
2018-08-16T08:24:21.964Z,10.30
2018-08-16T08:25:26.556Z,10.90
2018-08-16T08:26:32.000Z,10.60
2018-08-16T08:27:38.519Z,9.80
2018-08-16T08:28:43.010Z,9.80
2018-08-16T08:29:49.557Z,9.20
2018-08-16T08:30:54.080Z,10.80
2018-08-16T08:31:59.609Z,10.20
2018-08-16T08:33:06.121Z,10.30
2018-08-16T08:34:10.632Z,9.30
2018-08-16T08:35:17.163Z,9.70
2018-08-16T08:36:21.674Z,9.80
2018-08-16T08:37:27.179Z,11.60
2018-08-16T08:38:33.799Z,10.30
2018-08-16T08:39:38.212Z,9.80
2018-08-16T08:40:44.722Z,9.40
2018-08-16T08:41:49.233Z,10.30
2018-08-16T08:42:54.793Z,9.40
2018-08-16T08:44:01.284Z,10.60
2018-08-16T08:45:05.807Z,9.70
2018-08-16T08:46:12.318Z,10.20
2018-08-16T08:47:16.841Z,10.10
2018-08-16T08:48:22.353Z,11.00
2018-08-16T08:49:28.894Z,10.90
2018-08-16T08:50:33.403Z,10.10
2018-08-16T08:51:39.941Z,10.30
2018-08-16T08:52:44.444Z,11.50
2018-08-16T08:53:49.979Z,11.40
2018-08-16T08:54:56.501Z,9.50
2018-08-16T08:56:00.997Z,10.20
2018-08-16T08:57:07.521Z,10.10
2018-08-16T08:58:12.020Z,11.60
2018-08-16T08:59:17.583Z,10.00
2018-08-16T09:00:24.078Z,11.20
2018-08-16T09:01:28.591Z,11.90
2018-08-16T09:02:35.110Z,14.00
2018-08-16T09:03:39.612Z,14.80
2018-08-16T09:04:45.146Z,10.20
2018-08-16T09:05:51.671Z,9.10
2018-08-16T09:06:56.238Z,9.90
2018-08-16T09:08:02.707Z,13.20
2018-08-16T09:09:07.221Z,12.20
2018-08-16T09:10:12.719Z,12.20
2018-08-16T09:11:19.240Z,9.50
2018-08-16T09:12:23.781Z,9.50
2018-08-16T09:13:30.305Z,10.80
2018-08-16T09:14:34.790Z,9.10
2018-08-16T09:15:40.340Z,10.00
2018-08-16T09:16:46.828Z,10.70
2018-08-16T09:17:51.343Z,8.90
2018-08-16T09:18:57.908Z,9.80
2018-08-16T09:20:02.397Z,9.10
2018-08-16T09:21:07.918Z,9.60
2018-08-16T09:22:14.465Z,10.00
2018-08-16T09:23:18.959Z,9.30
2018-08-16T09:24:25.496Z,10.30
2018-08-16T09:25:29.968Z,9.10
2018-08-16T09:26:35.524Z,8.50
2018-08-16T09:27:42.026Z,9.40
2018-08-16T09:28:46.559Z,8.60
2018-08-16T09:29:53.060Z,8.80
2018-08-16T09:30:57.586Z,9.30
2018-08-16T09:32:03.086Z,10.00
2018-08-16T09:33:09.647Z,9.30
2018-08-16T09:34:14.141Z,9.00
2018-08-16T09:35:20.681Z,8.90
2018-08-16T09:36:25.201Z,8.90
2018-08-16T09:37:30.700Z,9.50
2018-08-16T09:38:37.246Z,9.90
2018-08-16T09:39:41.838Z,9.50
2018-08-16T09:40:48.271Z,9.20
2018-08-16T09:41:52.765Z,9.50
2018-08-16T09:42:58.298Z,9.00
2018-08-16T09:44:04.825Z,8.30
2018-08-16T09:45:09.351Z,8.60
2018-08-16T09:46:15.871Z,8.60
2018-08-16T09:47:20.363Z,8.40
2018-08-16T09:48:25.877Z,10.50
2018-08-16T09:49:32.429Z,9.10
2018-08-16T09:50:36.971Z,9.00
2018-08-16T09:51:43.500Z,9.30
2018-08-16T09:52:47.944Z,8.00
2018-08-16T09:53:53.487Z,8.20
2018-08-16T09:55:00.005Z,8.10
2018-08-16T09:56:04.535Z,8.30
2018-08-16T09:57:11.052Z,8.90
2018-08-16T09:58:15.566Z,8.70
2018-08-16T09:59:21.081Z,10.40
2018-08-16T10:00:27.613Z,8.30
2018-08-16T10:01:32.129Z,8.10
2018-08-16T10:02:38.656Z,8.20
2018-08-16T10:03:43.152Z,8.60
2018-08-16T10:04:48.702Z,8.60
2018-08-16T10:05:55.184Z,8.20
2018-08-16T10:06:59.711Z,9.20
2018-08-16T10:08:06.224Z,7.70
2018-08-16T10:09:10.755Z,9.40
2018-08-16T10:10:16.275Z,11.80
2018-08-16T10:11:22.801Z,9.20
2018-08-16T10:12:27.301Z,8.80
2018-08-16T10:13:33.907Z,8.50
2018-08-16T10:14:38.346Z,9.20
2018-08-16T10:15:43.885Z,8.00
2018-08-16T10:16:50.384Z,7.70
2018-08-16T10:17:54.921Z,8.70
2018-08-16T10:19:01.458Z,8.50
2018-08-16T10:20:05.954Z,10.00
2018-08-16T10:21:11.480Z,8.00
2018-08-16T10:22:18.016Z,7.80
2018-08-16T10:23:22.491Z,7.50
2018-08-16T10:24:29.017Z,10.50
2018-08-16T10:25:33.533Z,9.80
2018-08-16T10:26:39.085Z,7.70
2018-08-16T10:27:45.610Z,9.60
2018-08-16T10:28:50.130Z,8.30
2018-08-16T10:29:56.639Z,9.00
2018-08-16T10:31:01.132Z,8.60
2018-08-16T10:32:06.682Z,8.30
2018-08-16T10:33:13.193Z,9.30
2018-08-16T10:34:17.721Z,7.50
2018-08-16T10:35:24.236Z,8.60
2018-08-16T10:36:28.744Z,8.80
2018-08-16T10:37:34.247Z,8.50
2018-08-16T10:38:40.807Z,7.50
2018-08-16T10:39:45.297Z,8.10
2018-08-16T10:40:51.825Z,9.30
2018-08-16T10:41:56.347Z,8.10
2018-08-16T10:43:01.850Z,8.10
2018-08-16T10:44:08.381Z,7.30
2018-08-16T10:45:12.904Z,6.90
2018-08-16T10:46:19.430Z,7.60
2018-08-16T10:47:23.951Z,6.90
2018-08-16T10:48:29.504Z,6.60
2018-08-16T10:49:35.997Z,6.40
2018-08-16T10:50:40.500Z,6.40
2018-08-16T10:51:47.042Z,6.00
2018-08-16T10:52:51.543Z,6.10
2018-08-16T10:53:57.078Z,5.60
2018-08-16T10:55:03.619Z,6.00
2018-08-16T10:56:08.090Z,6.00
2018-08-16T10:57:14.640Z,5.90
2018-08-16T10:58:19.129Z,6.40
2018-08-16T10:59:24.692Z,8.40
2018-08-16T11:00:31.232Z,6.50
2018-08-16T11:01:35.727Z,7.00
2018-08-16T11:02:42.235Z,6.20
2018-08-16T11:03:46.730Z,7.00
2018-08-16T11:04:52.288Z,7.10
2018-08-16T11:05:58.804Z,7.50
2018-08-16T11:07:03.316Z,6.80
2018-08-16T11:08:09.860Z,6.50
2018-08-16T11:09:14.364Z,8.60
2018-08-16T11:10:19.880Z,7.20
2018-08-16T11:11:26.402Z,6.60
2018-08-16T11:12:30.920Z,6.30
2018-08-16T11:13:37.463Z,7.90
2018-08-16T11:14:41.964Z,6.20
2018-08-16T11:15:47.533Z,6.50
2018-08-16T11:16:53.984Z,7.40
2018-08-16T11:17:58.492Z,6.20
2018-08-16T11:19:05.053Z,5.90
2018-08-16T11:20:09.588Z,7.40
2018-08-16T11:21:15.063Z,6.70
2018-08-16T11:22:21.592Z,7.30
2018-08-16T11:23:26.122Z,6.30
2018-08-16T11:24:32.671Z,6.90
2018-08-16T11:25:37.165Z,7.60
2018-08-16T11:26:42.694Z,6.60
2018-08-16T11:27:49.228Z,6.10
2018-08-16T11:28:53.747Z,6.40
2018-08-16T11:30:00.275Z,5.90
2018-08-16T11:31:04.796Z,6.20
2018-08-16T11:32:10.302Z,6.40
2018-08-16T11:33:16.835Z,7.20
2018-08-16T11:34:21.340Z,7.00
2018-08-16T11:35:27.866Z,5.70
2018-08-16T11:36:32.382Z,6.20
2018-08-16T11:37:37.904Z,5.80
2018-08-16T11:38:44.421Z,6.10
2018-08-16T11:39:48.935Z,5.90
2018-08-16T11:40:55.477Z,5.70
2018-08-16T11:41:59.979Z,7.40
2018-08-16T11:43:05.513Z,6.10
2018-08-16T11:44:12.073Z,5.60
2018-08-16T11:45:16.574Z,6.30
2018-08-16T11:46:23.099Z,7.40
2018-08-16T11:47:27.598Z,5.80
2018-08-16T11:48:33.140Z,6.40
2018-08-16T11:49:39.635Z,7.10
2018-08-16T11:50:44.151Z,5.70
2018-08-16T11:51:50.729Z,5.80
2018-08-16T11:52:55.228Z,6.60
2018-08-16T11:54:00.703Z,5.90
2018-08-16T11:55:07.265Z,5.90
2018-08-16T11:56:11.788Z,6.70
2018-08-16T11:57:18.318Z,5.30
2018-08-16T11:58:22.851Z,5.60
2018-08-16T11:59:28.341Z,5.80
2018-08-16T12:00:34.890Z,6.00
2018-08-16T12:01:39.365Z,6.90
2018-08-16T12:02:45.961Z,6.00
2018-08-16T12:03:50.410Z,6.10
2018-08-16T12:04:55.964Z,6.00
2018-08-16T12:06:02.489Z,6.50
2018-08-16T12:07:06.989Z,7.10
2018-08-16T12:08:13.516Z,6.70
2018-08-16T12:09:18.077Z,5.80
2018-08-16T12:10:23.579Z,7.20
2018-08-16T12:11:30.082Z,5.80
2018-08-16T12:12:34.601Z,5.90
2018-08-16T12:13:41.122Z,6.80
2018-08-16T12:14:45.697Z,7.90
2018-08-16T12:15:51.173Z,6.60
2018-08-16T12:16:57.710Z,6.40
2018-08-16T12:18:02.209Z,6.40
2018-08-16T12:19:08.741Z,7.40
2018-08-16T12:20:13.287Z,7.20
2018-08-16T12:21:18.801Z,7.30
2018-08-16T12:22:25.339Z,6.60
2018-08-16T12:23:29.808Z,6.50
2018-08-16T12:24:36.356Z,6.40
2018-08-16T12:25:40.895Z,6.60
2018-08-16T12:26:46.399Z,6.30
2018-08-16T12:27:52.920Z,6.30
2018-08-16T12:28:57.468Z,5.60
2018-08-16T12:30:03.943Z,6.10
2018-08-16T12:31:08.484Z,6.30
2018-08-16T12:32:14.002Z,6.20
2018-08-16T12:33:20.535Z,7.90
2018-08-16T12:34:25.040Z,6.70
2018-08-16T12:35:31.567Z,6.70
2018-08-16T12:36:36.096Z,7.00
2018-08-16T12:37:41.609Z,6.20
2018-08-16T12:38:48.124Z,6.70
2018-08-16T12:39:52.648Z,7.60
2018-08-16T12:40:59.206Z,7.90
2018-08-16T12:42:03.711Z,6.00
2018-08-16T12:43:09.227Z,6.10
2018-08-16T12:44:15.759Z,5.80
2018-08-16T12:45:20.259Z,6.00
2018-08-16T12:46:26.897Z,5.90
2018-08-16T12:47:31.336Z,6.00
2018-08-16T12:48:36.838Z,7.40
2018-08-16T12:49:43.392Z,5.90
2018-08-16T12:50:47.907Z,7.80
2018-08-16T12:51:54.434Z,6.30
2018-08-16T12:52:58.964Z,6.50
2018-08-16T12:54:04.452Z,6.60
2018-08-16T12:55:10.970Z,6.70
2018-08-16T12:56:15.489Z,6.80
2018-08-16T12:57:22.022Z,6.30
2018-08-16T12:58:26.558Z,6.40
2018-08-16T12:59:32.097Z,7.30
2018-08-16T13:00:38.601Z,6.60
2018-08-16T13:01:43.185Z,8.20
2018-08-16T13:02:49.644Z,6.20
2018-08-16T13:03:54.140Z,7.40
2018-08-16T13:04:59.663Z,6.50
2018-08-16T13:06:06.200Z,6.60
2018-08-16T13:07:10.747Z,6.80
2018-08-16T13:08:17.249Z,6.70
2018-08-16T13:09:21.759Z,8.10
2018-08-16T13:10:27.271Z,8.50
2018-08-16T13:11:33.814Z,6.40
2018-08-16T13:12:38.329Z,7.50
2018-08-16T13:13:44.844Z,6.10
2018-08-16T13:14:49.405Z,6.10
2018-08-16T13:15:54.890Z,6.50
2018-08-16T13:17:01.444Z,9.40
2018-08-16T13:18:05.922Z,6.30
2018-08-16T13:19:12.502Z,6.60
2018-08-16T13:20:16.995Z,5.90
2018-08-16T13:21:22.504Z,5.80
2018-08-16T13:22:29.031Z,6.40
2018-08-16T13:23:33.560Z,6.90
2018-08-16T13:24:40.107Z,6.00
2018-08-16T13:25:44.591Z,6.10
2018-08-16T13:26:50.134Z,6.10
2018-08-16T13:27:56.672Z,6.30
2018-08-16T13:29:01.175Z,6.50
2018-08-16T13:30:07.751Z,6.10
2018-08-16T13:31:12.254Z,6.30
2018-08-16T13:32:17.758Z,7.90
2018-08-16T13:33:24.234Z,7.10
2018-08-16T13:34:28.812Z,8.00
2018-08-16T13:35:35.312Z,6.40
2018-08-16T13:36:39.839Z,7.00
2018-08-16T13:37:45.371Z,6.40
2018-08-16T13:38:51.900Z,6.00
2018-08-16T13:39:56.362Z,6.70
2018-08-16T13:41:02.933Z,7.50
2018-08-16T13:42:07.444Z,7.20
2018-08-16T13:43:12.968Z,7.90
2018-08-16T13:44:19.487Z,12.40
2018-08-16T13:45:23.990Z,10.40
2018-08-16T13:46:30.562Z,7.70
2018-08-16T13:47:35.045Z,8.80
2018-08-16T13:48:40.620Z,6.40
2018-08-16T13:49:47.080Z,6.10
2018-08-16T13:50:51.614Z,6.00
2018-08-16T13:51:58.179Z,9.00
2018-08-16T13:53:02.664Z,6.40
2018-08-16T13:54:08.178Z,8.40
2018-08-16T13:55:14.719Z,11.10
2018-08-16T13:56:19.249Z,7.40
2018-08-16T13:57:25.764Z,7.50
2018-08-16T13:58:30.266Z,8.40
2018-08-16T13:59:35.784Z,7.60
2018-08-16T14:00:42.300Z,10.00
2018-08-16T14:01:46.851Z,7.10
2018-08-16T14:02:53.345Z,7.40
2018-08-16T14:03:57.881Z,7.30
2018-08-16T14:05:03.403Z,6.90
2018-08-16T14:06:09.954Z,7.10
2018-08-16T14:07:14.461Z,8.80
2018-08-16T14:08:21.017Z,8.10
2018-08-16T14:09:25.504Z,6.90
2018-08-16T14:10:31.042Z,9.40
2018-08-16T14:11:37.539Z,7.10
2018-08-16T14:12:42.051Z,8.10
2018-08-16T14:13:48.603Z,6.80